Aviation Digital Data Service (ADDS)

Output produced by METARs form (1553 UTC 20 March 2019)
found at http://www.aviationweather.gov/metar/data/
 
Forecast for: MKJP (KINGSTON/NORMAN , JM)
Text: TAF MKJP 201115Z 2012/2112 36004KT 9999 FEW022
Forecast period: 1200 to 1400 UTC 20 March 2019
Forecast type: FROM: standard forecast or significant change
Winds: from the N (360 degrees) at 5 MPH (4 knots; 2.1 m/s)
Visibility: 6 or more miles 10+ km)
Ceiling: at least 12,000 feet AGL
Clouds: few clouds at 2200 feet AGL
Weather: no significant weather forecast for this period
Text: BECMG 2014/2016 15012KT SCT020
Forecast period: 1400 UTC 20 March 2019 to 0100 UTC 21 March 2019
Forecast type: BECOMING: Conditions expected to become as follows by 1600 UTC 20 March 2019
Winds: from the SSE (150 degrees) at 14 MPH (12 knots; 6.2 m/s)
Visibility: 6 or more miles 10+ km)
Ceiling: at least 12,000 feet AGL
Clouds: scattered clouds at 2000 feet AGL
Weather: no significant weather forecast for this period
Text: BECMG 2101/2103 36004KT FEW022 TAF MKJS 201115Z 2012/2112 17005KT 9999 FEW022
Forecast period: 0100 to 1200 UTC 21 March 2019
Forecast type: BECOMING: Conditions expected to become as follows by 0300 UTC 21 March 2019
Winds: from the N (360 degrees) at 5 MPH (4 knots; 2.1 m/s)
Visibility: 6 or more miles 10+ km)
Ceiling: at least 12,000 feet AGL
Clouds: few clouds at 2200 feet AGL
few clouds at 2200 feet AGL
Weather: no significant weather forecast for this period
Text: BECMG 2014/2016 04012KT
Forecast period: 1400 UTC 20 March 2019 to 0100 UTC 21 March 2019
Forecast type: BECOMING: Conditions expected to become as follows by 1600 UTC 20 March 2019
Winds: from the NE (40 degrees) at 14 MPH (12 knots; 6.2 m/s)
Visibility: 6 or more miles 10+ km)
Ceiling: at least 12,000 feet AGL
Clouds: few clouds at 2200 feet AGL
few clouds at 2200 feet AGL
Weather: no significant weather forecast for this period
Text: PROB40
Forecast period: 1700 to 2200 UTC 20 March 2019
Forecast type: TEMPORARY: The following changes expected for less than half the time period
Visibility: 5 miles (8 km)
Ceiling: 1800 feet AGL
Clouds: broken clouds at 1800 feet AGL
Weather: SHRA  (rain showers)
Text: TEMPO 2017/2022 8000 SHRA BKN018
Forecast period: 0100 to 1200 UTC 21 March 2019
Forecast type: BECOMING: Conditions expected to become as follows by 0300 UTC 21 March 2019
Winds: from the SSE (160 degrees) at 5 MPH (4 knots; 2.1 m/s)
Visibility: 6 or more miles 10+ km)
Ceiling: at least 12,000 feet AGL
Clouds: scattered clouds at 2000 feet AGL
Weather: no significant weather forecast for this period